Latest Weather Observations for Applethorpe

IDQ60801

Issued at 11:02 pm EST Sunday 1 February 2015 (issued every 30 minutes, with the page automatically refreshed every 10 minutes)

About weather observations | Map of weather stations | Latest weather observations for QLD | Other Formats
Station Details ID: 041175 Name: APPLETHORPE Lat: -28.62 Lon: 151.95 Height: 871.6 m
Data from the previous 72 hours. | See also: Recent months at Applethorpe
Date/Time
EST
Temp
°C
App
Temp
°C
Dew
Point
Rel
Hum
%
Delta-T
°C
Wind Press
QNH
hPa
Press
MSL
hPa
Rain
since 9 am
mm
Dir
 
Spd
km/h
Gust
km/h
Spd
kts
Gust
kts
01/11:00pm 17.9 20.0 17.3 96 0.4 E 2 6 1 3 1012.6 1007.9 0.0
01/10:30pm 17.8 19.4 17.0 95 0.5 NE 4 7 2 4 1012.7 1008.0 0.0
01/10:00pm 16.5 17.9 15.3 93 0.7 NE 2 6 1 3 1012.4 1007.7 0.0
01/09:30pm 17.3 18.6 15.2 87 1.3 ENE 2 4 1 2 1012.3 1007.5 0.0
01/09:00pm 16.2 16.3 11.6 74 2.6 ENE 2 6 1 3 1012.0 1007.3 0.0
01/08:30pm 16.1 16.6 11.5 74 2.6 CALM 0 4 0 2 1011.8 1007.1 0.0
01/08:00pm 17.0 17.2 10.5 65 3.6 CALM 0 0 0 0 1011.6 1006.9 0.0
01/07:30pm 18.0 18.1 10.1 60 4.4 CALM 0 0 0 0 1011.4 1006.7 0.0
01/07:00pm 20.2 19.4 9.8 51 5.8 W 4 6 2 3 1011.1 1006.3 0.0
01/06:30pm 23.6 21.4 5.1 30 9.7 WSW 6 7 3 4 1010.7 1006.0 0.0
01/06:00pm 25.3 22.8 3.9 25 11.1 WSW 6 11 3 6 1010.3 1005.6 0.0
01/05:30pm 25.7 22.4 2.4 22 11.8 SW 9 17 5 9 1010.0 1005.2 0.0
01/05:00pm 26.0 21.7 1.2 20 12.3 SW 13 22 7 12 1009.8 1005.0 0.0
01/04:30pm 26.8 23.4 4.2 23 11.9 SW 11 17 6 9 1009.4 1004.7 0.0
01/04:00pm 26.6 23.2 4.1 23 11.8 SW 11 20 6 11 1009.4 1004.7 0.0
01/03:30pm 26.8 24.3 4.8 24 11.7 W 7 17 4 9 1009.5 1004.8 0.0
01/03:00pm 26.4 23.5 4.4 24 11.6 SW 9 13 5 7 1009.5 1004.8 0.0
01/02:30pm 26.6 24.2 5.3 25 11.4 SW 7 15 4 8 1009.8 1005.0 0.0
01/02:00pm 26.7 24.1 4.3 23 11.8 WNW 7 19 4 10 1009.9 1005.1 0.0
01/01:30pm 26.2 23.6 4.0 24 11.6 W 7 15 4 8 1010.1 1005.3 0.0
01/01:00pm 26.0 22.6 4.2 24 11.4 WSW 11 20 6 11 1010.5 1005.8 0.0
01/12:30pm 25.7 22.1 2.7 22 11.7 WSW 11 20 6 11 1010.8 1006.1 0.0
01/12:00pm 25.3 22.4 4.8 26 10.8 W 9 15 5 8 1011.1 1006.3 0.0
01/11:30am 25.1 22.0 3.8 25 11.0 WNW 9 17 5 9 1011.6 1006.9 0.0
01/11:00am 25.0 22.9 5.7 29 10.3 NNW 6 11 3 6 1011.7 1007.0 0.0
01/10:30am 24.0 21.7 5.5 30 9.8 WNW 7 19 4 10 1012.0 1007.3 0.0
01/10:00am 22.9 22.6 11.6 49 6.6 NNE 4 11 2 6 1012.1 1007.4 0.0
01/09:30am 22.3 21.8 11.9 51 6.1 ENE 6 9 3 5 1012.1 1007.2 0.0
01/09:00am 20.7 20.9 13.1 61 4.5 NE 4 9 2 5 1012.1 1007.2 0.0
01/08:30am 19.8 20.1 14.9 73 3.0 NE 7 11 4 6 1012.0 1007.1 0.0
01/08:00am 18.9 19.7 15.8 82 1.9 ENE 6 9 3 5 1011.9 1007.0 0.0
01/07:30am 18.1 19.0 16.0 87 1.3 E 6 11 3 6 1011.7 1006.8 0.0
01/07:00am 16.1 16.7 15.4 96 0.4 ENE 6 9 3 5 1011.4 1006.5 0.0
01/06:30am 14.3 15.6 14.0 98 0.2 CALM 0 0 0 0 1011.2 1006.2 0.0
01/06:00am 12.2 12.7 11.7 97 0.3 CALM 0 0 0 0 1010.8 1005.9 0.0
01/05:30am 11.7 12.1 11.3 97 0.2 CALM 0 0 0 0 1010.6 1005.7 0.0
01/05:00am 10.8 11.0 10.4 97 0.2 CALM 0 0 0 0 1010.2 1005.2 0.0
01/04:30am 11.2 11.1 10.8 97 0.2 NE 2 2 1 1 1009.9 1004.9 0.0
01/04:00am 12.5 13.2 12.3 99 0.1 CALM 0 0 0 0 1009.9 1004.9 0.0
01/03:30am 12.9 13.7 12.7 99 0.1 CALM 0 0 0 0 1009.9 1004.9 0.0
01/03:00am 12.5 13.1 11.8 95 0.4 CALM 0 2 0 1 1010.0 1005.0 0.0
01/02:30am 11.0 11.2 10.6 97 0.2 CALM 0 0 0 0 1009.9 1004.9 0.0
01/02:00am 10.1 9.2 9.1 93 0.5 NE 4 6 2 3 1010.1 1005.1 0.0
01/01:30am 10.2 9.2 8.9 92 0.7 ENE 4 6 2 3 1010.4 1005.5 0.0
01/01:00am 10.5 9.8 8.4 87 1.1 NE 2 6 1 3 1010.5 1005.6 0.0
01/12:30am 10.8 9.8 8.7 87 1.1 NE 4 6 2 3 1010.8 1005.9 0.0
01/12:00am 11.2 10.7 9.3 88 1.0 ENE 2 4 1 2 1011.3 1006.3 0.0
 
Date/Time
EST
Temp
°C
App
Temp
°C
Dew
Point
Rel
Hum
%
Delta-T
°C
Wind Press
QNH
hPa
Press
MSL
hPa
Rain
since 9 am
mm
Dir
 
Spd
km/h
Gust
km/h
Spd
kts
Gust
kts
31/11:30pm 12.0 11.5 9.4 84 1.4 NE 2 4 1 2 1011.6 1006.7 0.0
31/11:00pm 11.7 11.8 10.0 89 0.9 CALM 0 0 0 0 1011.6 1006.7 0.0
31/10:30pm 12.0 12.0 9.8 86 1.2 CALM 0 0 0 0 1011.7 1006.8 0.0
31/10:00pm 12.6 12.7 10.0 84 1.4 CALM 0 0 0 0 1011.9 1007.0 0.0
31/09:30pm 13.7 13.9 10.4 80 1.8 CALM 0 0 0 0 1011.9 1007.0 0.0
31/09:00pm 14.3 14.3 9.9 75 2.4 CALM 0 0 0 0 1011.7 1006.8 0.0
31/08:30pm 15.6 15.4 9.1 65 3.5 CALM 0 0 0 0 1011.4 1006.5 0.0
31/08:00pm 17.2 16.9 8.7 57 4.6 CALM 0 0 0 0 1010.9 1006.0 0.0
31/07:30pm 20.5 18.2 4.9 36 8.0 W 6 7 3 4 1010.6 1005.7 0.0
31/07:00pm 22.0 19.3 3.9 30 9.2 WSW 7 13 4 7 1010.2 1005.2 0.0
31/06:30pm 23.8 20.7 3.4 26 10.4 WSW 9 20 5 11 1009.5 1004.6 0.0
31/06:00pm 25.5 20.6 2.0 21 11.8 WSW 17 24 9 13 1009.0 1004.0 0.0
31/05:30pm 26.2 22.6 4.9 25 11.3 WSW 13 26 7 14 1008.3 1003.4 0.0
31/05:00pm 26.6 22.3 5.3 25 11.4 WSW 17 30 9 16 1008.0 1003.0 0.0
31/04:30pm 26.8 21.7 3.2 22 12.2 WSW 19 35 10 19 1008.0 1003.0 0.0
31/04:00pm 27.1 22.3 4.7 24 11.9 W 19 33 10 18 1008.0 1003.0 0.0
31/03:30pm 27.0 21.4 3.3 21 12.3 WSW 22 39 12 21 1008.2 1003.3 0.0
31/03:00pm 27.3 22.7 5.7 25 11.7 WSW 19 33 10 18 1008.3 1003.4 0.0
31/02:30pm 27.6 22.9 5.9 25 11.8 W 20 41 11 22 1008.8 1003.8 0.0
31/02:00pm 26.9 22.7 7.5 29 10.8 WNW 19 33 10 18 1008.9 1003.9 0.0
31/01:30pm 25.6 22.9 11.8 42 8.2 WSW 17 32 9 17 1009.1 1004.1 0.0
31/01:00pm 26.5 24.4 11.3 38 9.0 W 13 30 7 16 1009.1 1004.1 0.0
31/12:30pm 26.1 25.4 14.3 48 7.3 WNW 11 26 6 14 1009.9 1004.9 0.0
31/12:00pm 25.9 25.7 14.6 49 7.0 WNW 9 19 5 10 1010.3 1005.4 0.0
31/11:30am 24.5 24.4 13.9 51 6.5 NW 7 20 4 11 1010.6 1005.7 0.0
31/11:00am 25.1 24.0 14.4 51 6.6 W 13 24 7 13 1011.1 1006.1 0.0
31/10:30am 24.5 23.6 13.7 51 6.6 WNW 11 28 6 15 1011.4 1006.5 0.0
31/10:00am 23.5 22.7 14.0 55 5.8 WNW 11 22 6 12 1011.6 1006.7 0.0
31/09:30am 23.0 22.7 14.3 58 5.3 NNW 9 17 5 9 1011.7 1006.8 0.0
31/09:00am 22.5 22.6 15.4 64 4.4 NW 9 22 5 12 1011.8 1006.9 0.0
31/08:30am 21.6 21.4 14.7 65 4.2 NNW 9 19 5 10 1011.8 1006.9 0.0
31/08:00am 21.1 20.8 14.5 66 4.0 NW 9 17 5 9 1011.7 1006.8 0.0
31/07:30am 20.2 20.0 14.8 71 3.3 N 9 17 5 9 1011.9 1007.0 0.0
31/07:00am 19.3 19.7 15.2 77 2.5 NNW 7 20 4 11 1011.8 1006.9 0.0
31/06:30am 18.3 18.9 15.2 82 1.9 NNW 6 13 3 7 1011.6 1006.7 0.0
31/06:00am 16.7 17.9 14.9 89 1.1 NNW 2 6 1 3 1011.3 1006.3 0.0
31/05:30am 15.2 16.2 14.2 94 0.6 NNW 2 4 1 2 1010.9 1006.0 0.0
31/05:00am 15.9 16.8 14.0 88 1.1 NNW 2 6 1 3 1010.6 1005.7 0.0
31/04:30am 15.8 16.7 13.9 88 1.1 NNW 2 6 1 3 1010.4 1005.5 0.0
31/04:00am 16.3 16.8 13.9 86 1.4 NNW 4 9 2 5 1010.1 1005.1 0.0
31/03:30am 15.3 16.4 13.4 88 1.1 CALM 0 6 0 3 1010.0 1005.0 0.0
31/03:00am 16.9 16.5 13.1 78 2.2 N 7 11 4 6 1009.8 1004.8 0.0
31/02:30am 16.3 15.8 12.5 78 2.2 N 7 13 4 7 1009.8 1004.8 0.0
31/02:00am 12.5 12.9 11.4 93 0.6 CALM 0 2 0 1 1009.9 1004.9 0.0
31/01:30am 12.4 12.9 11.7 95 0.4 CALM 0 2 0 1 1010.0 1005.0 0.0
31/01:00am 12.5 13.1 11.8 95 0.4 CALM 0 0 0 0 1010.1 1005.1 0.0
31/12:30am 12.9 13.1 12.0 94 0.5 NE 2 6 1 3 1010.6 1005.7 0.0
31/12:00am 13.1 13.8 12.2 94 0.5 CALM 0 0 0 0 1010.7 1005.8 0.0
 
Date/Time
EST
Temp
°C
App
Temp
°C
Dew
Point
Rel
Hum
%
Delta-T
°C
Wind Press
QNH
hPa
Press
MSL
hPa
Rain
since 9 am
mm
Dir
 
Spd
km/h
Gust
km/h
Spd
kts
Gust
kts
30/11:30pm 13.2 13.9 12.3 94 0.5 CALM 0 0 0 0 1011.1 1006.1 0.0
30/11:00pm 13.5 14.3 12.6 94 0.5 CALM 0 0 0 0 1011.1 1006.1 0.0
30/10:30pm 13.8 14.7 12.8 94 0.6 CALM 0 0 0 0 1011.2 1006.2 0.0
30/10:00pm 14.3 15.3 13.1 92 0.7 CALM 0 0 0 0 1011.4 1006.5 0.0
30/09:30pm 14.7 15.7 13.1 90 0.9 CALM 0 2 0 1 1011.4 1006.5 0.0
30/09:00pm 15.4 16.4 13.2 87 1.3 CALM 0 2 0 1 1011.3 1006.3 0.0
30/08:30pm 16.4 16.1 11.5 73 2.8 N 4 4 2 2 1011.2 1006.2 0.0
30/08:00pm 17.9 17.8 10.8 63 4.0 NNW 2 4 1 2 1011.1 1006.1 0.0
30/07:30pm 17.8 18.3 12.8 72 2.9 WNW 2 4 1 2 1010.8 1005.9 0.0
30/07:00pm 19.8 20.3 12.8 64 4.1 W 2 4 1 2 1010.6 1005.7 0.0
30/06:30pm 22.2 21.1 10.1 46 6.9 WSW 6 11 3 6 1010.4 1005.5 0.0
30/06:00pm 22.5 20.6 8.9 42 7.6 WSW 9 15 5 8 1010.2 1005.2 0.0
30/05:30pm 23.9 21.0 8.2 36 8.7 W 13 20 7 11 1009.8 1004.8 0.0
30/05:00pm 24.8 22.8 8.6 35 9.1 W 9 19 5 10 1009.6 1004.7 0.0
30/04:30pm 23.3 21.9 9.5 41 7.8 WSW 7 11 4 6 1009.5 1004.6 0.0
30/04:00pm 24.5 22.5 10.1 40 8.3 WSW 11 19 6 10 1009.6 1004.7 0.0
30/03:30pm 25.8 24.0 11.0 39 8.7 WSW 11 24 6 13 1009.9 1004.9 0.0
30/03:00pm 25.3 21.8 8.8 35 9.3 W 17 28 9 15 1010.1 1005.1 0.0
30/02:30pm 24.2 21.8 9.9 40 8.2 WSW 13 20 7 11 1010.4 1005.5 0.0
30/02:00pm 24.5 21.6 9.8 39 8.4 SW 15 26 8 14 1010.6 1005.7 0.0
30/01:30pm 24.3 21.4 8.1 35 9.0 WSW 13 24 7 13 1010.8 1005.9 0.0
30/01:00pm 23.5 21.4 9.6 41 7.9 SW 11 20 6 11 1011.2 1006.2 0.0
30/12:30pm 24.0 21.4 10.7 43 7.7 SW 15 24 8 13 1011.5 1006.6 0.0
30/12:00pm 23.2 20.7 9.8 42 7.6 W 13 26 7 14 1011.8 1006.9 0.0
30/11:30am 22.3 19.7 9.5 44 7.2 WSW 13 22 7 12 1012.1 1007.2 0.0
30/11:00am 22.3 19.7 9.5 44 7.2 WSW 13 26 7 14 1012.4 1007.5 0.0
30/10:30am 20.7 17.3 7.7 43 7.0 WSW 15 24 8 13 1012.7 1007.8 0.0
30/10:00am 21.9 19.8 9.9 46 6.8 WSW 11 20 6 11 1012.7 1007.8 0.0
30/09:30am 21.4 20.5 11.4 53 5.8 WNW 7 15 4 8 1012.7 1007.8 0.0
30/09:00am 19.9 19.6 12.6 63 4.3 NNW 6 17 3 9 1012.7 1007.8 0.0
30/08:30am 18.3 18.2 13.8 75 2.7 NW 7 15 4 8 1012.9 1008.0 0.0
30/08:00am 18.1 18.4 14.4 79 2.2 N 6 9 3 5 1013.0 1008.1 0.0
30/07:30am 16.5 17.0 14.1 86 1.4 NNE 4 7 2 4 1013.1 1008.2 0.0
30/07:00am 14.9 15.3 13.7 92 0.7 NE 4 6 2 3 1012.9 1008.0 0.0
30/06:30am 13.3 14.2 12.8 97 0.3 CALM 0 4 0 2 1012.7 1007.8 0.0
30/06:00am 12.0 12.5 11.5 97 0.3 CALM 0 0 0 0 1012.6 1007.7 0.0
30/05:30am 11.8 12.2 11.4 97 0.2 CALM 0 0 0 0 1012.3 1007.3 0.0
30/05:00am 11.4 11.8 11.2 99 0.1 CALM 0 0 0 0 1012.1 1007.2 0.0
30/04:30am 11.9 12.3 11.4 97 0.3 CALM 0 2 0 1 1012.0 1007.1 0.0
30/04:00am 12.5 12.7 12.0 97 0.3 NE 2 6 1 3 1012.0 1007.1 0.0
30/03:30am 12.8 12.8 12.3 97 0.3 NE 4 6 2 3 1012.0 1007.1 0.0
30/03:00am 13.1 13.1 12.4 95 0.4 ENE 4 7 2 4 1012.0 1007.1 0.0
30/02:30am 13.3 13.4 12.6 95 0.4 NE 4 7 2 4 1012.4 1007.5 0.0
30/02:00am 13.6 13.7 12.7 94 0.5 ENE 4 7 2 4 1012.6 1007.7 0.0
30/01:30am 14.1 14.3 12.9 92 0.7 NE 4 9 2 5 1012.9 1008.0 0.0
30/01:00am 14.9 14.8 13.4 91 0.9 ENE 6 9 3 5 1013.1 1008.2 0.0
30/12:30am 15.8 16.4 14.3 91 0.9 ENE 4 7 2 4 1013.1 1008.2 0.0
30/12:00am 15.7 16.0 14.4 92 0.8 ENE 6 9 3 5 1013.2 1008.3 0.0
 
Date/Time
EST
Temp
°C
App
Temp
°C
Dew
Point
Rel
Hum
%
Delta-T
°C
Wind Press
QNH
hPa
Press
MSL
hPa
Rain
since 9 am
mm
Dir
 
Spd
km/h
Gust
km/h
Spd
kts
Gust
kts
29/11:30pm 15.8 16.1 14.5 92 0.8 E 6 13 3 7 1013.6 1008.7 0.0

Other Formats:

Comma delimited format used in spreadsheet applications
http://www.bom.gov.au/fwo/IDQ60801/IDQ60801.94553.axf

JavaScript Object Notation format (JSON) in row-major order
http://www.bom.gov.au/fwo/IDQ60801/IDQ60801.94553.json